createdAt,value
2017-10-17T00:01:57.446Z,76.13
2017-10-17T00:04:24.978Z,73.47
2017-10-17T00:06:52.787Z,60.00
2017-10-17T00:09:20.347Z,53.43
2017-10-17T00:11:47.896Z,47.70
2017-10-17T00:14:15.687Z,59.03
2017-10-17T00:16:43.211Z,54.60
2017-10-17T00:19:10.740Z,66.00
2017-10-17T00:21:38.311Z,62.73
2017-10-17T00:24:05.849Z,55.33
2017-10-17T00:26:33.592Z,64.90
2017-10-17T00:29:01.157Z,71.23
2017-10-17T00:31:28.659Z,61.53
2017-10-17T00:33:56.197Z,58.87
2017-10-17T00:36:24.688Z,43.10
2017-10-17T00:38:52.192Z,52.10
2017-10-17T00:41:19.732Z,66.47
2017-10-17T00:43:47.300Z,63.80
2017-10-17T00:46:15.591Z,69.83
2017-10-17T00:48:43.162Z,61.03
2017-10-17T00:51:17.453Z,58.93
2017-10-17T00:53:44.980Z,57.43
2017-10-17T00:56:12.514Z,74.80
2017-10-17T00:58:40.344Z,58.87
2017-10-17T01:01:07.927Z,52.83
2017-10-17T01:03:35.471Z,45.37
2017-10-17T01:06:03.764Z,42.67
2017-10-17T01:08:31.284Z,45.80
2017-10-17T01:10:58.829Z,54.03
2017-10-17T01:13:26.511Z,63.07
2017-10-17T01:15:54.783Z,38.80
2017-10-17T01:18:23.072Z,41.63
2017-10-17T01:20:52.264Z,43.03
2017-10-17T01:23:19.855Z,40.17
2017-10-17T01:25:47.675Z,45.33
2017-10-17T01:28:16.728Z,36.40
2017-10-17T01:30:44.279Z,44.13
2017-10-17T01:33:11.791Z,45.37
2017-10-17T01:35:40.086Z,52.43
2017-10-17T01:38:08.419Z,50.90
2017-10-17T01:40:35.932Z,36.80
2017-10-17T01:43:04.593Z,41.00
2017-10-17T01:45:36.483Z,34.03
2017-10-17T01:48:07.784Z,42.03
2017-10-17T02:04:00.315Z,40.00
2017-10-17T02:06:27.847Z,35.80
2017-10-17T02:08:55.347Z,41.87
2017-10-17T02:11:23.685Z,63.43
2017-10-17T02:13:51.547Z,60.60
2017-10-17T02:16:19.077Z,62.03
2017-10-17T02:18:51.099Z,61.73
2017-10-17T02:21:18.612Z,60.53
2017-10-17T02:23:46.119Z,59.47
2017-10-17T02:26:30.031Z,58.90
2017-10-17T02:29:26.997Z,65.60
2017-10-17T02:31:54.573Z,60.27
2017-10-17T02:34:26.470Z,60.33
2017-10-17T02:36:54.864Z,45.93
2017-10-17T02:39:22.995Z,51.80
2017-10-17T02:41:50.554Z,64.50
2017-10-17T02:44:18.615Z,55.73
2017-10-17T02:46:49.019Z,64.20
2017-10-17T02:49:31.487Z,50.17
2017-10-17T02:51:59.771Z,63.53
2017-10-17T02:54:27.941Z,72.70
2017-10-17T02:56:55.514Z,85.33
2017-10-17T02:59:24.590Z,76.90
2017-10-17T03:01:52.908Z,56.57
2017-10-17T03:17:40.975Z,61.87
2017-10-17T03:20:08.480Z,57.57
2017-10-17T03:22:36.007Z,54.00
2017-10-17T03:25:08.751Z,71.83
2017-10-17T03:27:36.308Z,75.90
2017-10-17T03:30:04.408Z,74.70
2017-10-17T03:32:31.994Z,69.30
2017-10-17T03:35:06.711Z,55.30
2017-10-17T03:37:47.790Z,73.77
2017-10-17T03:53:49.497Z,71.73
2017-10-17T03:56:28.907Z,80.80
2017-10-17T03:59:01.075Z,79.53
2017-10-17T04:01:29.486Z,65.03
2017-10-17T04:04:00.623Z,82.50
2017-10-17T04:06:33.031Z,66.83
2017-10-17T04:09:05.014Z,77.97
2017-10-17T04:11:33.346Z,63.13
2017-10-17T04:14:21.569Z,89.43
2017-10-17T04:16:59.795Z,91.67
2017-10-17T04:19:29.507Z,76.10
2017-10-17T04:22:07.090Z,77.47
2017-10-17T04:24:42.408Z,75.13
2017-10-17T04:27:24.204Z,56.90
2017-10-17T04:29:58.165Z,61.87
2017-10-17T04:32:26.079Z,81.70
2017-10-17T04:34:53.596Z,80.70
2017-10-17T04:37:21.989Z,74.53
2017-10-17T04:39:50.362Z,81.73
2017-10-17T04:42:23.759Z,93.97
2017-10-17T04:45:03.096Z,82.83
2017-10-17T04:47:36.063Z,72.80
2017-10-17T05:03:28.827Z,51.60
2017-10-17T05:05:58.818Z,70.23
2017-10-17T05:08:46.131Z,61.10
2017-10-17T05:11:13.650Z,66.03
2017-10-17T05:13:42.671Z,53.23
2017-10-17T05:16:14.707Z,59.60
2017-10-17T05:19:03.565Z,52.00
2017-10-17T05:21:32.050Z,55.33
2017-10-17T05:37:39.840Z,44.37
2017-10-17T05:40:12.786Z,65.23
2017-10-17T05:42:40.744Z,55.50
2017-10-17T05:45:12.763Z,69.43
2017-10-17T05:47:42.715Z,69.93
2017-10-17T05:50:11.016Z,77.33
2017-10-17T05:52:42.271Z,68.33
2017-10-17T05:55:09.847Z,70.80
2017-10-17T05:57:38.113Z,76.60
2017-10-17T06:00:06.427Z,70.20
2017-10-17T06:02:33.939Z,75.53
2017-10-17T06:05:01.450Z,61.83
2017-10-17T06:07:29.263Z,62.93
2017-10-17T06:09:56.843Z,55.93
2017-10-17T06:12:25.119Z,67.67
2017-10-17T06:14:54.087Z,61.90
2017-10-17T06:17:21.590Z,71.43
2017-10-17T06:19:50.375Z,68.50
2017-10-17T06:22:18.370Z,88.10
2017-10-17T06:24:45.917Z,97.30
2017-10-17T06:27:13.683Z,110.47
2017-10-17T06:29:41.623Z,121.37
2017-10-17T06:32:09.474Z,78.73
2017-10-17T06:34:37.759Z,83.83
2017-10-17T06:37:06.079Z,75.13
2017-10-17T06:39:33.585Z,66.53
2017-10-17T06:42:00.443Z,40.00
2017-10-17T06:44:28.487Z,39.70
2017-10-17T06:46:56.000Z,50.50
2017-10-17T06:49:23.685Z,37.10
2017-10-17T06:51:51.196Z,33.97
2017-10-17T06:54:19.784Z,28.90
2017-10-17T06:56:47.384Z,21.03
2017-10-17T06:59:14.891Z,27.40
2017-10-17T07:01:42.398Z,21.43
2017-10-17T07:04:10.201Z,20.00
2017-10-17T07:06:37.523Z,16.30
2017-10-17T07:09:05.030Z,17.93
2017-10-17T07:11:32.555Z,19.00
2017-10-17T07:13:59.555Z,14.70
2017-10-17T07:16:27.131Z,22.23
2017-10-17T07:18:55.271Z,20.80
2017-10-17T07:21:23.963Z,25.30
2017-10-17T07:23:52.230Z,20.43
2017-10-17T07:26:20.554Z,16.30
2017-10-17T07:28:48.831Z,16.67
2017-10-17T07:31:16.339Z,19.63
2017-10-17T07:33:43.852Z,17.27
2017-10-17T07:36:11.668Z,21.27
2017-10-17T07:38:39.171Z,21.77
2017-10-17T07:41:06.682Z,33.17
2017-10-17T07:43:34.609Z,34.40
2017-10-17T07:46:02.120Z,21.33
2017-10-17T07:48:29.636Z,32.73
2017-10-17T07:50:57.248Z,40.87
2017-10-17T07:53:25.303Z,28.97
2017-10-17T07:55:52.859Z,19.10
2017-10-17T07:58:20.418Z,19.63
2017-10-17T08:00:47.923Z,14.73
2017-10-17T08:03:15.431Z,17.43
2017-10-17T08:05:43.103Z,15.60
2017-10-17T08:08:11.370Z,28.00
2017-10-17T08:10:39.663Z,15.13
2017-10-17T08:13:08.434Z,14.83
2017-10-17T08:15:36.055Z,17.27
2017-10-17T08:18:03.659Z,18.77
2017-10-17T08:20:31.171Z,23.03
2017-10-17T08:22:58.975Z,15.70
2017-10-17T08:25:26.490Z,18.50
2017-10-17T08:27:54.139Z,16.73
2017-10-17T08:30:21.916Z,15.97
2017-10-17T08:32:49.451Z,24.60
2017-10-17T08:35:16.956Z,21.93
2017-10-17T08:37:44.555Z,17.80
2017-10-17T08:40:12.915Z,17.90
2017-10-17T08:42:40.431Z,18.10
2017-10-17T08:45:08.239Z,24.97
2017-10-17T08:47:35.750Z,20.63
2017-10-17T08:50:03.255Z,24.53
2017-10-17T08:52:30.816Z,22.87
2017-10-17T08:54:58.322Z,19.27
2017-10-17T08:57:26.160Z,23.03
2017-10-17T08:59:54.503Z,28.30
2017-10-17T09:02:22.019Z,22.30
2017-10-17T09:04:49.528Z,17.10
2017-10-17T09:07:16.922Z,22.13
2017-10-17T09:09:45.217Z,16.27
2017-10-17T09:12:12.232Z,24.90
2017-10-17T09:14:40.898Z,19.57
2017-10-17T09:17:08.418Z,18.10
2017-10-17T09:19:35.947Z,21.40
2017-10-17T09:22:03.545Z,16.87
2017-10-17T09:24:31.051Z,15.27
2017-10-17T09:26:58.915Z,18.80
2017-10-17T09:29:26.456Z,17.13
2017-10-17T09:31:53.471Z,21.67
2017-10-17T09:34:21.047Z,16.87
2017-10-17T09:36:48.555Z,16.03
2017-10-17T09:39:16.059Z,20.17
2017-10-17T09:41:43.619Z,20.13
2017-10-17T09:44:11.147Z,17.10
2017-10-17T09:46:38.672Z,16.33
2017-10-17T09:49:06.227Z,25.20
2017-10-17T09:51:33.777Z,15.03
2017-10-17T09:54:01.287Z,19.10
2017-10-17T09:56:29.067Z,17.93
2017-10-17T09:58:56.575Z,19.57
2017-10-17T10:01:24.547Z,17.10
2017-10-17T10:03:52.533Z,18.00
2017-10-17T10:06:20.827Z,16.83
2017-10-17T10:08:48.335Z,16.23
2017-10-17T10:11:15.876Z,23.10
2017-10-17T10:13:43.385Z,19.10
2017-10-17T10:16:11.659Z,18.17
2017-10-17T10:18:39.289Z,16.53
2017-10-17T10:21:06.802Z,16.57
2017-10-17T10:23:34.314Z,16.83
2017-10-17T10:26:01.864Z,14.30
2017-10-17T10:28:29.394Z,18.73
2017-10-17T10:30:56.899Z,16.73
2017-10-17T10:33:24.459Z,19.10
2017-10-17T10:35:51.967Z,21.17
2017-10-17T10:38:19.471Z,20.60
2017-10-17T10:40:47.544Z,23.10
2017-10-17T10:43:15.077Z,17.93
2017-10-17T10:45:42.727Z,17.03
2017-10-17T10:48:10.530Z,24.30
2017-10-17T10:50:38.579Z,27.20
2017-10-17T10:53:06.099Z,15.43
2017-10-17T10:55:33.727Z,22.37
2017-10-17T10:58:01.233Z,18.90
2017-10-17T11:00:28.743Z,17.60
2017-10-17T11:02:56.454Z,21.73
2017-10-17T11:05:23.963Z,18.57
2017-10-17T11:07:51.473Z,19.63
2017-10-17T11:10:19.306Z,22.33
2017-10-17T11:12:46.829Z,24.00
2017-10-17T11:15:14.338Z,19.77
2017-10-17T11:17:42.175Z,14.97
2017-10-17T11:20:09.671Z,19.37
2017-10-17T11:22:37.184Z,18.07
2017-10-17T11:25:05.003Z,21.77
2017-10-17T11:27:32.636Z,18.53
2017-10-17T11:30:01.031Z,19.50
2017-10-17T11:32:28.847Z,15.53
2017-10-17T11:34:56.355Z,17.63
2017-10-17T11:37:23.881Z,13.63
2017-10-17T11:39:51.435Z,17.60
2017-10-17T11:42:30.726Z,12.17
2017-10-17T11:44:58.591Z,15.10
2017-10-17T11:47:26.147Z,18.80
2017-10-17T11:49:53.683Z,15.43
2017-10-17T11:52:22.031Z,16.03
2017-10-17T11:54:49.535Z,14.50
2017-10-17T11:57:17.053Z,23.00
2017-10-17T11:59:44.612Z,17.90
2017-10-17T12:02:12.131Z,18.57
2017-10-17T12:04:39.655Z,17.43
2017-10-17T12:07:08.443Z,19.10
2017-10-17T12:09:35.996Z,11.23
2017-10-17T12:12:04.363Z,11.80
2017-10-17T12:14:32.219Z,23.77
2017-10-17T12:16:59.747Z,13.37
2017-10-17T12:19:27.299Z,17.77
2017-10-17T12:21:54.949Z,20.33
2017-10-17T12:24:22.450Z,15.33
2017-10-17T12:26:49.950Z,20.30
2017-10-17T12:29:17.731Z,13.73
2017-10-17T12:31:45.282Z,21.23
2017-10-17T12:34:12.836Z,16.83
2017-10-17T12:36:41.408Z,17.27
2017-10-17T12:39:08.943Z,13.80
2017-10-17T12:41:36.452Z,12.30
2017-10-17T12:44:04.064Z,13.90
2017-10-17T12:46:31.586Z,12.73
2017-10-17T12:48:59.096Z,12.57
2017-10-17T12:51:26.888Z,14.67
2017-10-17T12:53:54.391Z,8.10
2017-10-17T12:56:21.989Z,13.37
2017-10-17T12:58:50.298Z,11.10
2017-10-17T13:01:17.809Z,11.87
2017-10-17T13:03:45.315Z,9.17
2017-10-17T13:06:13.099Z,12.63
2017-10-17T13:08:40.594Z,11.47
2017-10-17T13:11:08.083Z,9.57
2017-10-17T13:13:35.895Z,10.83
2017-10-17T13:16:03.418Z,9.17
2017-10-17T13:18:30.915Z,12.13
2017-10-17T13:20:58.466Z,9.60
2017-10-17T13:23:25.967Z,14.83
2017-10-17T13:25:53.488Z,10.93
2017-10-17T13:28:21.061Z,10.93
2017-10-17T13:30:48.558Z,10.07
2017-10-17T13:33:16.092Z,8.97
2017-10-17T13:35:43.887Z,9.90
2017-10-17T13:38:11.411Z,10.07
2017-10-17T13:40:38.911Z,8.13
2017-10-17T13:43:06.463Z,11.07
2017-10-17T13:45:33.971Z,10.70
2017-10-17T13:48:01.523Z,10.93
2017-10-17T13:50:29.395Z,9.70
2017-10-17T13:52:56.941Z,13.30
2017-10-17T13:55:24.439Z,10.17
2017-10-17T13:57:52.211Z,9.63
2017-10-17T14:00:19.718Z,10.23
2017-10-17T14:02:47.256Z,12.93
2017-10-17T14:05:14.804Z,16.27
2017-10-17T14:07:42.413Z,8.23
2017-10-17T14:10:09.948Z,10.80
2017-10-17T14:12:37.503Z,14.10
2017-10-17T14:15:05.027Z,12.67
2017-10-17T14:17:32.530Z,12.03
2017-10-17T14:20:00.083Z,8.93
2017-10-17T14:22:27.583Z,8.63
2017-10-17T14:24:55.071Z,9.70
2017-10-17T14:27:22.973Z,12.00
2017-10-17T14:29:50.507Z,11.23
2017-10-17T14:32:18.784Z,12.27
2017-10-17T14:34:46.849Z,13.47
2017-10-17T14:37:15.151Z,10.10
2017-10-17T14:39:42.670Z,14.40
2017-10-17T14:42:10.225Z,11.93
2017-10-17T14:44:37.724Z,11.57
2017-10-17T14:47:05.231Z,9.90
2017-10-17T14:49:33.032Z,10.50
2017-10-17T14:52:01.299Z,11.93
2017-10-17T14:54:29.573Z,12.03
2017-10-17T14:56:57.915Z,8.80
2017-10-17T14:59:25.810Z,12.63
2017-10-17T15:01:53.312Z,8.80
2017-10-17T15:04:20.940Z,9.23
2017-10-17T15:06:48.468Z,16.53
2017-10-17T15:09:15.995Z,10.17
2017-10-17T15:11:43.557Z,17.20
2017-10-17T15:14:11.126Z,13.77
2017-10-17T15:16:38.636Z,16.93
2017-10-17T15:19:06.220Z,21.00
2017-10-17T15:21:33.825Z,21.70
2017-10-17T15:24:01.387Z,20.80
2017-10-17T15:26:28.942Z,23.10
2017-10-17T15:28:56.496Z,23.27
2017-10-17T15:31:24.064Z,21.30
2017-10-17T15:33:51.812Z,19.67
2017-10-17T15:36:19.476Z,23.30
2017-10-17T15:38:46.987Z,24.63
2017-10-17T15:41:14.547Z,23.27
2017-10-17T15:43:42.870Z,20.53
2017-10-17T15:46:10.819Z,23.27
2017-10-17T15:48:38.384Z,22.43
2017-10-17T15:51:05.923Z,22.80
2017-10-17T15:53:33.431Z,30.47
2017-10-17T15:56:01.166Z,19.20
2017-10-17T15:58:28.671Z,20.13
2017-10-17T16:00:56.185Z,119.07
2017-10-17T16:03:24.540Z,31.57
2017-10-17T16:05:52.812Z,49.00
2017-10-17T16:08:21.087Z,23.60
2017-10-17T16:10:49.682Z,21.07
2017-10-17T16:13:17.280Z,27.20
2017-10-17T16:15:44.871Z,53.37
2017-10-17T16:18:12.493Z,28.47
2017-10-17T16:20:40.004Z,27.53
2017-10-17T16:23:08.281Z,21.67
2017-10-17T16:25:36.876Z,63.97
2017-10-17T16:28:04.955Z,23.40
2017-10-17T16:30:32.464Z,27.67
2017-10-17T16:33:00.355Z,22.03
2017-10-17T16:35:27.931Z,22.73
2017-10-17T16:37:55.431Z,23.03
2017-10-17T16:40:22.976Z,21.70
2017-10-17T16:42:50.518Z,25.67
2017-10-17T16:45:18.032Z,30.80
2017-10-17T16:47:45.598Z,25.30
2017-10-17T16:50:13.108Z,21.30
2017-10-17T16:52:40.683Z,21.23
2017-10-17T16:55:08.319Z,23.07
2017-10-17T16:57:35.835Z,26.13
2017-10-17T17:00:03.356Z,34.63
2017-10-17T17:02:30.906Z,28.67
2017-10-17T17:04:58.839Z,24.67
2017-10-17T17:07:26.350Z,21.80
2017-10-17T17:09:53.916Z,35.43
2017-10-17T17:12:21.521Z,26.67
2017-10-17T17:14:49.814Z,23.80
2017-10-17T17:17:18.143Z,23.30
2017-10-17T17:19:45.652Z,23.57
2017-10-17T17:22:13.186Z,38.67
2017-10-17T17:24:41.883Z,37.30
2017-10-17T17:27:10.152Z,39.33
2017-10-17T17:29:37.940Z,34.17
2017-10-17T17:32:05.539Z,91.57
2017-10-17T17:34:33.040Z,72.80
2017-10-17T17:37:00.547Z,35.60
2017-10-17T17:39:28.107Z,27.30
2017-10-17T17:41:55.616Z,30.27
2017-10-17T17:44:23.140Z,43.73
2017-10-17T17:46:50.840Z,59.20
2017-10-17T17:49:19.164Z,45.47
2017-10-17T17:51:46.709Z,66.47
2017-10-17T17:54:14.492Z,34.00
2017-10-17T17:56:42.062Z,52.30
2017-10-17T17:59:15.527Z,68.03
2017-10-17T18:01:43.046Z,45.17
2017-10-17T18:04:10.551Z,46.13
2017-10-17T18:06:38.202Z,49.80
2017-10-17T18:09:05.703Z,43.80
2017-10-17T18:11:33.209Z,36.63
2017-10-17T18:14:01.808Z,39.00
2017-10-17T18:16:29.311Z,34.07
2017-10-17T18:18:57.038Z,32.20
2017-10-17T18:21:24.538Z,39.30
2017-10-17T18:23:52.663Z,45.37
2017-10-17T18:26:20.219Z,31.73
2017-10-17T18:28:47.733Z,37.70
2017-10-17T18:31:15.235Z,27.17
2017-10-17T18:33:42.994Z,36.13
2017-10-17T18:36:11.318Z,29.80
2017-10-17T18:38:38.835Z,26.50
2017-10-17T18:41:06.599Z,36.73
2017-10-17T18:43:34.870Z,29.80
2017-10-17T18:46:03.151Z,49.07
2017-10-17T18:48:32.916Z,28.97
2017-10-17T18:51:00.771Z,28.80
2017-10-17T18:53:28.331Z,27.80
2017-10-17T18:55:55.830Z,24.07
2017-10-17T18:58:23.432Z,33.37
2017-10-17T19:00:50.935Z,27.27
2017-10-17T19:03:18.440Z,30.57
2017-10-17T19:05:45.995Z,28.43
2017-10-17T19:08:13.727Z,35.47
2017-10-17T19:10:41.235Z,36.27
2017-10-17T19:13:08.817Z,28.83
2017-10-17T19:15:36.320Z,34.40
2017-10-17T19:18:04.660Z,33.57
2017-10-17T19:20:32.259Z,32.20
2017-10-17T19:23:00.538Z,30.10
2017-10-17T19:25:28.816Z,28.00
2017-10-17T19:27:58.952Z,30.30
2017-10-17T19:30:26.559Z,21.70
2017-10-17T19:32:54.871Z,27.53
2017-10-17T19:35:23.947Z,28.97
2017-10-17T19:37:53.930Z,26.53
2017-10-17T19:40:22.024Z,26.57
2017-10-17T19:42:49.535Z,30.50
2017-10-17T19:45:17.374Z,29.50
2017-10-17T19:47:44.990Z,28.00
2017-10-17T19:50:12.511Z,27.17
2017-10-17T19:52:40.293Z,29.60
2017-10-17T19:55:08.087Z,28.70
2017-10-17T19:57:35.992Z,33.10
2017-10-17T20:00:04.869Z,36.63
2017-10-17T20:02:32.373Z,31.50
2017-10-17T20:04:59.955Z,24.37
2017-10-17T20:07:27.523Z,27.30
2017-10-17T20:09:55.036Z,28.73
2017-10-17T20:12:23.481Z,27.63
2017-10-17T20:14:51.024Z,26.57
2017-10-17T20:17:18.540Z,25.37
2017-10-17T20:19:46.411Z,26.23
2017-10-17T20:22:14.423Z,33.43
2017-10-17T20:24:42.359Z,24.50
2017-10-17T20:27:09.882Z,27.60
2017-10-17T20:29:37.403Z,34.80
2017-10-17T20:32:06.311Z,33.20
2017-10-17T20:34:34.391Z,34.00
2017-10-17T20:37:01.963Z,25.10
2017-10-17T20:39:29.491Z,34.67
2017-10-17T20:41:57.084Z,28.87
2017-10-17T20:44:24.886Z,31.43
2017-10-17T20:46:52.467Z,39.50
2017-10-17T20:49:20.023Z,30.73
2017-10-17T20:51:48.082Z,30.53
2017-10-17T20:54:16.571Z,40.73
2017-10-17T20:56:44.890Z,35.70
2017-10-17T20:59:12.427Z,34.70
2017-10-17T21:01:40.027Z,43.93
2017-10-17T21:04:07.660Z,33.07
2017-10-17T21:06:36.251Z,49.63
2017-10-17T21:09:05.151Z,30.00
2017-10-17T21:11:33.971Z,38.07
2017-10-17T21:14:01.949Z,35.20
2017-10-17T21:16:29.467Z,31.27
2017-10-17T21:18:57.195Z,36.00
2017-10-17T21:21:24.794Z,48.93
2017-10-17T21:23:52.309Z,40.60
2017-10-17T21:26:19.938Z,42.37
2017-10-17T21:28:48.548Z,47.17
2017-10-17T21:31:16.536Z,39.60
2017-10-17T21:33:44.357Z,50.60
2017-10-17T21:36:11.975Z,42.77
2017-10-17T21:38:39.502Z,51.50
2017-10-17T21:41:07.131Z,56.40
2017-10-17T21:43:35.922Z,49.53
2017-10-17T21:46:03.447Z,39.80
2017-10-17T21:48:31.091Z,50.47
2017-10-17T21:50:59.600Z,44.20
2017-10-17T21:53:27.704Z,51.10
2017-10-17T21:55:56.030Z,39.60
2017-10-17T21:58:24.611Z,36.97
2017-10-17T22:01:01.920Z,37.83
2017-10-17T22:03:30.187Z,38.80
2017-10-17T22:05:58.463Z,31.13
2017-10-17T22:08:27.015Z,39.80
2017-10-17T22:10:54.524Z,45.83
2017-10-17T22:13:22.167Z,39.50
2017-10-17T22:15:49.995Z,33.83
2017-10-17T22:18:17.598Z,31.93
2017-10-17T22:20:45.863Z,38.03
2017-10-17T22:23:14.235Z,32.80
2017-10-17T22:25:41.751Z,33.07
2017-10-17T22:28:09.292Z,38.10
2017-10-17T22:30:36.883Z,39.00
2017-10-17T22:33:04.414Z,29.27
2017-10-17T22:35:31.951Z,30.73
2017-10-17T22:37:59.778Z,43.07
2017-10-17T22:40:27.278Z,35.60
2017-10-17T22:42:54.824Z,28.20
2017-10-17T22:45:23.207Z,33.70
2017-10-17T22:47:50.715Z,36.40
2017-10-17T22:50:18.235Z,31.67
2017-10-17T22:52:47.578Z,28.97
2017-10-17T22:55:15.091Z,34.00
2017-10-17T22:57:42.679Z,31.30
2017-10-17T23:00:11.367Z,32.23
2017-10-17T23:02:38.907Z,34.50
2017-10-17T23:05:06.521Z,32.00
2017-10-17T23:07:34.144Z,26.30
2017-10-17T23:10:01.646Z,27.17
2017-10-17T23:12:29.138Z,24.37
2017-10-17T23:14:56.762Z,33.10
2017-10-17T23:17:36.095Z,27.60
2017-10-17T23:20:15.528Z,26.60
2017-10-17T23:22:43.527Z,25.97
2017-10-17T23:25:11.079Z,28.20
2017-10-17T23:27:38.925Z,28.20
2017-10-17T23:30:06.729Z,26.63
2017-10-17T23:32:34.344Z,25.17
2017-10-17T23:35:02.139Z,30.10
2017-10-17T23:37:29.646Z,25.40
2017-10-17T23:39:57.175Z,28.07
2017-10-17T23:42:25.143Z,35.57
2017-10-17T23:44:53.416Z,32.03
2017-10-17T23:47:21.241Z,33.10
2017-10-17T23:49:48.795Z,26.73
2017-10-17T23:52:16.299Z,25.80
2017-10-17T23:54:43.822Z,22.43
2017-10-17T23:57:11.395Z,28.20
2017-10-17T23:59:38.898Z,30.17
